sensor_id;sensor_type;location;lat;lon;timestamp;temperature;humidity
8565;DHT22;4320;51.498;6.556;2024-02-28T00:00:37;2.70;99.90
8565;DHT22;4320;51.498;6.556;2024-02-28T00:03:03;2.70;99.90
8565;DHT22;4320;51.498;6.556;2024-02-28T00:05:29;2.60;99.90
8565;DHT22;4320;51.498;6.556;2024-02-28T00:07:54;2.70;99.90
8565;DHT22;4320;51.498;6.556;2024-02-28T00:10:20;2.80;99.90
8565;DHT22;4320;51.498;6.556;2024-02-28T00:12:46;2.90;99.90
8565;DHT22;4320;51.498;6.556;2024-02-28T00:15:11;2.90;99.90
8565;DHT22;4320;51.498;6.556;2024-02-28T00:17:40;3.00;99.90
8565;DHT22;4320;51.498;6.556;2024-02-28T00:20:07;3.00;99.90
8565;DHT22;4320;51.498;6.556;2024-02-28T00:22:34;3.10;99.90
8565;DHT22;4320;51.498;6.556;2024-02-28T00:25:00;3.00;99.90
8565;DHT22;4320;51.498;6.556;2024-02-28T00:27:26;2.90;99.90
8565;DHT22;4320;51.498;6.556;2024-02-28T00:29:52;2.70;99.90
8565;DHT22;4320;51.498;6.556;2024-02-28T00:32:18;2.80;99.90
8565;DHT22;4320;51.498;6.556;2024-02-28T00:34:43;2.70;99.90
8565;DHT22;4320;51.498;6.556;2024-02-28T00:37:09;2.60;99.90
8565;DHT22;4320;51.498;6.556;2024-02-28T00:39:35;2.50;99.90
8565;DHT22;4320;51.498;6.556;2024-02-28T00:42:00;2.50;99.90
8565;DHT22;4320;51.498;6.556;2024-02-28T00:44:26;2.70;99.90
8565;DHT22;4320;51.498;6.556;2024-02-28T00:46:51;2.80;99.90
8565;DHT22;4320;51.498;6.556;2024-02-28T00:49:17;2.70;99.90
8565;DHT22;4320;51.498;6.556;2024-02-28T00:51:43;2.70;99.90
8565;DHT22;4320;51.498;6.556;2024-02-28T00:54:08;2.80;99.90
8565;DHT22;4320;51.498;6.556;2024-02-28T00:56:34;2.80;99.90
8565;DHT22;4320;51.498;6.556;2024-02-28T00:59:00;2.60;99.90
8565;DHT22;4320;51.498;6.556;2024-02-28T01:01:25;2.70;99.90
8565;DHT22;4320;51.498;6.556;2024-02-28T01:03:51;2.80;99.90
8565;DHT22;4320;51.498;6.556;2024-02-28T01:06:16;2.70;99.90
8565;DHT22;4320;51.498;6.556;2024-02-28T01:08:42;2.70;99.90
8565;DHT22;4320;51.498;6.556;2024-02-28T01:11:08;2.30;99.90
8565;DHT22;4320;51.498;6.556;2024-02-28T01:13:33;2.10;99.90
8565;DHT22;4320;51.498;6.556;2024-02-28T01:15:59;2.10;99.90
8565;DHT22;4320;51.498;6.556;2024-02-28T01:18:25;2.30;99.90
8565;DHT22;4320;51.498;6.556;2024-02-28T01:20:51;2.10;99.90
8565;DHT22;4320;51.498;6.556;2024-02-28T01:23:19;2.20;99.90
8565;DHT22;4320;51.498;6.556;2024-02-28T01:25:44;2.30;99.90
8565;DHT22;4320;51.498;6.556;2024-02-28T01:28:10;2.50;99.90
8565;DHT22;4320;51.498;6.556;2024-02-28T01:30:35;2.70;99.90
8565;DHT22;4320;51.498;6.556;2024-02-28T01:33:01;2.80;99.90
8565;DHT22;4320;51.498;6.556;2024-02-28T01:35:27;2.80;99.90
8565;DHT22;4320;51.498;6.556;2024-02-28T01:37:52;2.70;99.90
8565;DHT22;4320;51.498;6.556;2024-02-28T01:40:18;2.60;99.90
8565;DHT22;4320;51.498;6.556;2024-02-28T01:42:43;2.50;99.90
8565;DHT22;4320;51.498;6.556;2024-02-28T01:45:13;2.30;99.90
8565;DHT22;4320;51.498;6.556;2024-02-28T01:47:39;2.00;99.90
8565;DHT22;4320;51.498;6.556;2024-02-28T01:50:05;2.20;99.90
8565;DHT22;4320;51.498;6.556;2024-02-28T01:52:31;2.10;99.90
8565;DHT22;4320;51.498;6.556;2024-02-28T01:54:57;2.40;99.90
8565;DHT22;4320;51.498;6.556;2024-02-28T01:57:22;2.60;99.90
8565;DHT22;4320;51.498;6.556;2024-02-28T01:59:48;2.60;99.90
8565;DHT22;4320;51.498;6.556;2024-02-28T02:02:14;2.70;99.90
8565;DHT22;4320;51.498;6.556;2024-02-28T02:04:39;2.60;99.90
8565;DHT22;4320;51.498;6.556;2024-02-28T02:07:06;2.50;99.90
8565;DHT22;4320;51.498;6.556;2024-02-28T02:09:33;2.60;99.90
8565;DHT22;4320;51.498;6.556;2024-02-28T02:11:59;2.50;99.90
8565;DHT22;4320;51.498;6.556;2024-02-28T02:14:25;2.50;99.90
8565;DHT22;4320;51.498;6.556;2024-02-28T02:16:50;2.50;99.90
8565;DHT22;4320;51.498;6.556;2024-02-28T02:19:16;2.50;99.90
8565;DHT22;4320;51.498;6.556;2024-02-28T02:21:52;2.40;99.90
8565;DHT22;4320;51.498;6.556;2024-02-28T02:24:18;2.30;99.90
8565;DHT22;4320;51.498;6.556;2024-02-28T02:26:43;2.30;99.90
8565;DHT22;4320;51.498;6.556;2024-02-28T02:29:12;1.90;99.90
8565;DHT22;4320;51.498;6.556;2024-02-28T02:31:37;2.00;99.90
8565;DHT22;4320;51.498;6.556;2024-02-28T02:34:03;2.10;99.90
8565;DHT22;4320;51.498;6.556;2024-02-28T02:36:29;2.30;99.90
8565;DHT22;4320;51.498;6.556;2024-02-28T02:38:54;2.30;99.90
8565;DHT22;4320;51.498;6.556;2024-02-28T02:41:20;2.50;99.90
8565;DHT22;4320;51.498;6.556;2024-02-28T02:43:45;2.50;99.90
8565;DHT22;4320;51.498;6.556;2024-02-28T02:46:11;2.60;99.90
8565;DHT22;4320;51.498;6.556;2024-02-28T02:48:36;2.50;99.90
8565;DHT22;4320;51.498;6.556;2024-02-28T02:51:02;2.40;99.90
8565;DHT22;4320;51.498;6.556;2024-02-28T02:53:28;2.40;99.90
8565;DHT22;4320;51.498;6.556;2024-02-28T02:55:53;2.50;99.90
8565;DHT22;4320;51.498;6.556;2024-02-28T02:58:19;2.50;99.90
8565;DHT22;4320;51.498;6.556;2024-02-28T03:00:45;2.30;99.90
8565;DHT22;4320;51.498;6.556;2024-02-28T03:03:10;2.40;99.90
8565;DHT22;4320;51.498;6.556;2024-02-28T03:05:36;2.60;99.90
8565;DHT22;4320;51.498;6.556;2024-02-28T03:08:02;2.60;99.90
8565;DHT22;4320;51.498;6.556;2024-02-28T03:10:27;2.80;99.90
8565;DHT22;4320;51.498;6.556;2024-02-28T03:12:54;2.90;99.90
8565;DHT22;4320;51.498;6.556;2024-02-28T03:15:19;3.00;99.90
8565;DHT22;4320;51.498;6.556;2024-02-28T03:17:45;3.10;99.90
8565;DHT22;4320;51.498;6.556;2024-02-28T03:20:11;3.20;99.90
8565;DHT22;4320;51.498;6.556;2024-02-28T03:22:38;3.20;99.90
8565;DHT22;4320;51.498;6.556;2024-02-28T03:25:04;3.20;99.90
8565;DHT22;4320;51.498;6.556;2024-02-28T03:27:30;3.20;99.90
8565;DHT22;4320;51.498;6.556;2024-02-28T03:29:56;3.10;99.90
8565;DHT22;4320;51.498;6.556;2024-02-28T03:32:21;3.20;99.90
8565;DHT22;4320;51.498;6.556;2024-02-28T03:34:47;3.30;99.90
8565;DHT22;4320;51.498;6.556;2024-02-28T03:37:13;3.30;99.90
8565;DHT22;4320;51.498;6.556;2024-02-28T03:39:39;3.40;99.90
8565;DHT22;4320;51.498;6.556;2024-02-28T03:42:04;3.30;99.90
8565;DHT22;4320;51.498;6.556;2024-02-28T03:44:30;3.20;99.90
8565;DHT22;4320;51.498;6.556;2024-02-28T03:46:56;3.30;99.90
8565;DHT22;4320;51.498;6.556;2024-02-28T03:49:21;3.30;99.90
8565;DHT22;4320;51.498;6.556;2024-02-28T03:51:47;3.30;99.90
8565;DHT22;4320;51.498;6.556;2024-02-28T03:54:12;3.40;99.90
8565;DHT22;4320;51.498;6.556;2024-02-28T03:56:38;3.50;99.90
8565;DHT22;4320;51.498;6.556;2024-02-28T03:59:03;3.60;99.90
8565;DHT22;4320;51.498;6.556;2024-02-28T04:01:30;3.60;99.90
8565;DHT22;4320;51.498;6.556;2024-02-28T04:03:56;3.50;99.90
8565;DHT22;4320;51.498;6.556;2024-02-28T04:06:21;3.50;99.90
8565;DHT22;4320;51.498;6.556;2024-02-28T04:08:47;3.50;99.90
8565;DHT22;4320;51.498;6.556;2024-02-28T04:11:13;3.60;99.90
8565;DHT22;4320;51.498;6.556;2024-02-28T04:13:39;3.50;99.90
8565;DHT22;4320;51.498;6.556;2024-02-28T04:16:05;3.50;99.90
8565;DHT22;4320;51.498;6.556;2024-02-28T04:18:31;3.40;99.90
8565;DHT22;4320;51.498;6.556;2024-02-28T04:20:56;3.40;99.90
8565;DHT22;4320;51.498;6.556;2024-02-28T04:23:22;3.40;99.90
8565;DHT22;4320;51.498;6.556;2024-02-28T04:25:47;3.40;99.90
8565;DHT22;4320;51.498;6.556;2024-02-28T04:28:13;3.50;99.90
8565;DHT22;4320;51.498;6.556;2024-02-28T04:30:39;3.40;99.90
8565;DHT22;4320;51.498;6.556;2024-02-28T04:33:04;3.40;99.90
8565;DHT22;4320;51.498;6.556;2024-02-28T04:35:30;3.40;99.90
8565;DHT22;4320;51.498;6.556;2024-02-28T04:37:55;3.40;99.90
8565;DHT22;4320;51.498;6.556;2024-02-28T04:40:22;3.30;99.90
8565;DHT22;4320;51.498;6.556;2024-02-28T04:42:47;3.30;99.90
8565;DHT22;4320;51.498;6.556;2024-02-28T04:45:13;3.30;99.90
8565;DHT22;4320;51.498;6.556;2024-02-28T04:47:38;3.40;99.90
8565;DHT22;4320;51.498;6.556;2024-02-28T04:50:05;3.40;99.90
8565;DHT22;4320;51.498;6.556;2024-02-28T04:52:34;3.50;99.90
8565;DHT22;4320;51.498;6.556;2024-02-28T04:55:00;3.50;99.90
8565;DHT22;4320;51.498;6.556;2024-02-28T04:57:26;3.40;99.90
8565;DHT22;4320;51.498;6.556;2024-02-28T04:59:51;3.40;99.90
8565;DHT22;4320;51.498;6.556;2024-02-28T05:02:17;3.50;99.90
8565;DHT22;4320;51.498;6.556;2024-02-28T05:04:43;3.60;99.90
8565;DHT22;4320;51.498;6.556;2024-02-28T05:07:09;3.50;99.90
8565;DHT22;4320;51.498;6.556;2024-02-28T05:09:34;3.50;99.90
8565;DHT22;4320;51.498;6.556;2024-02-28T05:12:01;3.50;99.90
8565;DHT22;4320;51.498;6.556;2024-02-28T05:14:26;3.50;99.90
8565;DHT22;4320;51.498;6.556;2024-02-28T05:16:52;3.40;99.90
8565;DHT22;4320;51.498;6.556;2024-02-28T05:19:18;3.20;99.90
8565;DHT22;4320;51.498;6.556;2024-02-28T05:21:44;3.30;99.90
8565;DHT22;4320;51.498;6.556;2024-02-28T05:24:10;3.50;99.90
8565;DHT22;4320;51.498;6.556;2024-02-28T05:26:36;3.50;99.90
8565;DHT22;4320;51.498;6.556;2024-02-28T05:29:03;3.60;99.90
8565;DHT22;4320;51.498;6.556;2024-02-28T05:31:29;3.50;99.90
8565;DHT22;4320;51.498;6.556;2024-02-28T05:33:57;3.60;99.90
8565;DHT22;4320;51.498;6.556;2024-02-28T05:36:24;3.70;99.90
8565;DHT22;4320;51.498;6.556;2024-02-28T05:38:51;3.70;99.90
8565;DHT22;4320;51.498;6.556;2024-02-28T05:41:17;3.70;99.90
8565;DHT22;4320;51.498;6.556;2024-02-28T05:43:43;3.60;99.90
8565;DHT22;4320;51.498;6.556;2024-02-28T05:46:09;3.60;99.90
8565;DHT22;4320;51.498;6.556;2024-02-28T05:48:35;3.60;99.90
8565;DHT22;4320;51.498;6.556;2024-02-28T05:51:02;3.60;99.90
8565;DHT22;4320;51.498;6.556;2024-02-28T05:53:28;3.60;99.90
8565;DHT22;4320;51.498;6.556;2024-02-28T05:55:57;3.70;99.90
8565;DHT22;4320;51.498;6.556;2024-02-28T05:58:23;3.60;99.90
8565;DHT22;4320;51.498;6.556;2024-02-28T06:00:51;3.40;99.90
8565;DHT22;4320;51.498;6.556;2024-02-28T06:03:16;3.40;99.90
8565;DHT22;4320;51.498;6.556;2024-02-28T06:05:42;3.40;99.90
8565;DHT22;4320;51.498;6.556;2024-02-28T06:08:08;3.40;99.90
8565;DHT22;4320;51.498;6.556;2024-02-28T06:10:33;3.40;99.90
8565;DHT22;4320;51.498;6.556;2024-02-28T06:12:59;3.40;99.90
8565;DHT22;4320;51.498;6.556;2024-02-28T06:15:25;3.40;99.90
8565;DHT22;4320;51.498;6.556;2024-02-28T06:17:51;3.50;99.90
8565;DHT22;4320;51.498;6.556;2024-02-28T06:20:17;3.50;99.90
8565;DHT22;4320;51.498;6.556;2024-02-28T06:22:42;3.40;99.90
8565;DHT22;4320;51.498;6.556;2024-02-28T06:25:08;3.40;99.90
8565;DHT22;4320;51.498;6.556;2024-02-28T06:27:43;3.40;99.90
8565;DHT22;4320;51.498;6.556;2024-02-28T06:30:09;3.40;99.90
8565;DHT22;4320;51.498;6.556;2024-02-28T06:32:34;3.40;99.90
8565;DHT22;4320;51.498;6.556;2024-02-28T06:35:00;3.50;99.90
8565;DHT22;4320;51.498;6.556;2024-02-28T06:37:25;3.30;99.90
8565;DHT22;4320;51.498;6.556;2024-02-28T06:39:51;3.40;99.90
8565;DHT22;4320;51.498;6.556;2024-02-28T06:42:17;3.40;99.90
8565;DHT22;4320;51.498;6.556;2024-02-28T06:44:42;3.40;99.90
8565;DHT22;4320;51.498;6.556;2024-02-28T06:47:08;3.50;99.90
8565;DHT22;4320;51.498;6.556;2024-02-28T06:49:34;3.60;99.90
8565;DHT22;4320;51.498;6.556;2024-02-28T06:52:00;3.40;99.90
8565;DHT22;4320;51.498;6.556;2024-02-28T06:54:27;3.50;99.90
8565;DHT22;4320;51.498;6.556;2024-02-28T06:56:54;3.60;99.90
8565;DHT22;4320;51.498;6.556;2024-02-28T06:59:20;3.60;99.90
8565;DHT22;4320;51.498;6.556;2024-02-28T07:01:46;3.70;99.90
8565;DHT22;4320;51.498;6.556;2024-02-28T07:04:11;3.70;99.90
8565;DHT22;4320;51.498;6.556;2024-02-28T07:06:37;3.80;99.90
8565;DHT22;4320;51.498;6.556;2024-02-28T07:09:03;3.70;99.90
8565;DHT22;4320;51.498;6.556;2024-02-28T07:11:29;3.70;99.90
8565;DHT22;4320;51.498;6.556;2024-02-28T07:13:54;3.70;99.90
8565;DHT22;4320;51.498;6.556;2024-02-28T07:16:22;3.70;99.90
8565;DHT22;4320;51.498;6.556;2024-02-28T07:18:48;3.80;99.90
8565;DHT22;4320;51.498;6.556;2024-02-28T07:21:14;3.80;99.90
8565;DHT22;4320;51.498;6.556;2024-02-28T07:23:40;3.90;99.90
8565;DHT22;4320;51.498;6.556;2024-02-28T07:26:06;3.90;99.90
8565;DHT22;4320;51.498;6.556;2024-02-28T07:28:32;3.90;99.90
8565;DHT22;4320;51.498;6.556;2024-02-28T07:30:58;4.00;99.90
8565;DHT22;4320;51.498;6.556;2024-02-28T07:33:23;4.00;99.90
8565;DHT22;4320;51.498;6.556;2024-02-28T07:35:51;4.00;99.90
8565;DHT22;4320;51.498;6.556;2024-02-28T07:38:17;4.10;99.90
8565;DHT22;4320;51.498;6.556;2024-02-28T07:40:46;4.00;99.90
8565;DHT22;4320;51.498;6.556;2024-02-28T07:43:11;4.10;99.90
8565;DHT22;4320;51.498;6.556;2024-02-28T07:45:37;4.10;99.90
8565;DHT22;4320;51.498;6.556;2024-02-28T07:48:03;4.00;99.90
8565;DHT22;4320;51.498;6.556;2024-02-28T07:50:28;4.10;99.90
8565;DHT22;4320;51.498;6.556;2024-02-28T07:52:55;4.20;99.90
8565;DHT22;4320;51.498;6.556;2024-02-28T07:55:21;4.20;99.90
8565;DHT22;4320;51.498;6.556;2024-02-28T07:57:53;4.20;99.90
8565;DHT22;4320;51.498;6.556;2024-02-28T08:00:19;4.30;99.90
8565;DHT22;4320;51.498;6.556;2024-02-28T08:02:46;4.40;99.90
8565;DHT22;4320;51.498;6.556;2024-02-28T08:05:12;4.40;99.90
8565;DHT22;4320;51.498;6.556;2024-02-28T08:07:38;4.50;99.90
8565;DHT22;4320;51.498;6.556;2024-02-28T08:10:04;4.50;99.90
8565;DHT22;4320;51.498;6.556;2024-02-28T08:12:32;4.50;99.90
8565;DHT22;4320;51.498;6.556;2024-02-28T08:14:58;4.60;99.90
8565;DHT22;4320;51.498;6.556;2024-02-28T08:17:24;4.60;99.90
8565;DHT22;4320;51.498;6.556;2024-02-28T08:19:49;4.60;99.90
8565;DHT22;4320;51.498;6.556;2024-02-28T08:22:15;4.70;99.90
8565;DHT22;4320;51.498;6.556;2024-02-28T08:24:40;4.50;99.90
8565;DHT22;4320;51.498;6.556;2024-02-28T08:27:06;4.70;99.90
8565;DHT22;4320;51.498;6.556;2024-02-28T08:29:32;4.70;99.90
8565;DHT22;4320;51.498;6.556;2024-02-28T08:31:58;4.60;99.90
8565;DHT22;4320;51.498;6.556;2024-02-28T08:34:23;4.70;99.90
8565;DHT22;4320;51.498;6.556;2024-02-28T08:36:50;4.80;99.90
8565;DHT22;4320;51.498;6.556;2024-02-28T08:39:15;4.90;99.90
8565;DHT22;4320;51.498;6.556;2024-02-28T08:41:41;5.00;99.90
8565;DHT22;4320;51.498;6.556;2024-02-28T08:44:07;5.00;99.90
8565;DHT22;4320;51.498;6.556;2024-02-28T08:46:32;5.10;99.90
8565;DHT22;4320;51.498;6.556;2024-02-28T08:48:58;5.20;99.90
8565;DHT22;4320;51.498;6.556;2024-02-28T08:51:23;5.30;99.90
8565;DHT22;4320;51.498;6.556;2024-02-28T08:53:49;5.30;99.90
8565;DHT22;4320;51.498;6.556;2024-02-28T08:56:17;5.40;99.90
8565;DHT22;4320;51.498;6.556;2024-02-28T08:58:43;5.40;99.90
8565;DHT22;4320;51.498;6.556;2024-02-28T09:01:14;5.40;99.90
8565;DHT22;4320;51.498;6.556;2024-02-28T09:03:40;5.30;99.90
8565;DHT22;4320;51.498;6.556;2024-02-28T09:06:06;5.50;99.90
8565;DHT22;4320;51.498;6.556;2024-02-28T09:08:31;5.60;99.90
8565;DHT22;4320;51.498;6.556;2024-02-28T09:10:58;5.80;99.90
8565;DHT22;4320;51.498;6.556;2024-02-28T09:13:23;5.90;99.90
8565;DHT22;4320;51.498;6.556;2024-02-28T09:15:49;6.00;99.90
8565;DHT22;4320;51.498;6.556;2024-02-28T09:18:16;6.00;99.90
8565;DHT22;4320;51.498;6.556;2024-02-28T09:20:42;6.00;99.90
8565;DHT22;4320;51.498;6.556;2024-02-28T09:23:08;6.20;99.90
8565;DHT22;4320;51.498;6.556;2024-02-28T09:25:34;6.30;99.90
8565;DHT22;4320;51.498;6.556;2024-02-28T09:28:01;6.40;99.90
8565;DHT22;4320;51.498;6.556;2024-02-28T09:30:27;6.30;99.90
8565;DHT22;4320;51.498;6.556;2024-02-28T09:32:53;6.40;99.90
8565;DHT22;4320;51.498;6.556;2024-02-28T09:35:19;6.50;99.90
8565;DHT22;4320;51.498;6.556;2024-02-28T09:37:45;6.50;99.90
8565;DHT22;4320;51.498;6.556;2024-02-28T09:40:11;6.60;99.90
8565;DHT22;4320;51.498;6.556;2024-02-28T09:42:38;6.50;99.90
8565;DHT22;4320;51.498;6.556;2024-02-28T09:45:04;6.60;99.90
8565;DHT22;4320;51.498;6.556;2024-02-28T09:47:30;6.70;99.90
8565;DHT22;4320;51.498;6.556;2024-02-28T09:49:57;6.80;99.90
8565;DHT22;4320;51.498;6.556;2024-02-28T09:52:26;6.90;99.90
8565;DHT22;4320;51.498;6.556;2024-02-28T09:54:53;7.10;99.90
8565;DHT22;4320;51.498;6.556;2024-02-28T09:57:18;7.20;99.90
8565;DHT22;4320;51.498;6.556;2024-02-28T09:59:45;7.20;99.90
8565;DHT22;4320;51.498;6.556;2024-02-28T10:02:12;7.30;99.90
8565;DHT22;4320;51.498;6.556;2024-02-28T10:04:40;7.30;99.90
8565;DHT22;4320;51.498;6.556;2024-02-28T10:07:12;7.30;99.90
8565;DHT22;4320;51.498;6.556;2024-02-28T10:09:38;7.40;99.90
8565;DHT22;4320;51.498;6.556;2024-02-28T10:12:04;7.40;99.90
8565;DHT22;4320;51.498;6.556;2024-02-28T10:14:30;7.50;99.90
8565;DHT22;4320;51.498;6.556;2024-02-28T10:16:56;7.60;99.90
8565;DHT22;4320;51.498;6.556;2024-02-28T10:19:22;7.90;99.90
8565;DHT22;4320;51.498;6.556;2024-02-28T10:21:47;8.00;99.90
8565;DHT22;4320;51.498;6.556;2024-02-28T10:24:14;7.90;99.90
8565;DHT22;4320;51.498;6.556;2024-02-28T10:26:46;7.90;99.90
8565;DHT22;4320;51.498;6.556;2024-02-28T10:29:24;8.00;99.90
8565;DHT22;4320;51.498;6.556;2024-02-28T10:31:57;8.00;99.90
8565;DHT22;4320;51.498;6.556;2024-02-28T10:34:23;7.90;99.90
8565;DHT22;4320;51.498;6.556;2024-02-28T10:36:49;7.90;99.90
8565;DHT22;4320;51.498;6.556;2024-02-28T10:39:15;8.00;99.90
8565;DHT22;4320;51.498;6.556;2024-02-28T10:41:41;7.70;99.90
8565;DHT22;4320;51.498;6.556;2024-02-28T10:44:09;7.70;99.90
8565;DHT22;4320;51.498;6.556;2024-02-28T10:46:37;7.80;99.90
8565;DHT22;4320;51.498;6.556;2024-02-28T10:49:04;7.90;99.90
8565;DHT22;4320;51.498;6.556;2024-02-28T10:51:34;7.80;99.90
8565;DHT22;4320;51.498;6.556;2024-02-28T10:54:11;7.60;99.90
8565;DHT22;4320;51.498;6.556;2024-02-28T10:56:38;7.50;99.90
8565;DHT22;4320;51.498;6.556;2024-02-28T10:59:07;7.70;99.90
8565;DHT22;4320;51.498;6.556;2024-02-28T11:01:35;7.80;99.90
8565;DHT22;4320;51.498;6.556;2024-02-28T11:04:03;7.70;99.90
8565;DHT22;4320;51.498;6.556;2024-02-28T11:06:28;7.70;99.90
8565;DHT22;4320;51.498;6.556;2024-02-28T11:08:54;7.70;99.90
8565;DHT22;4320;51.498;6.556;2024-02-28T11:11:22;7.50;99.90
8565;DHT22;4320;51.498;6.556;2024-02-28T11:13:58;7.50;99.90
8565;DHT22;4320;51.498;6.556;2024-02-28T11:16:32;7.70;99.90
8565;DHT22;4320;51.498;6.556;2024-02-28T11:18:58;7.80;99.90
8565;DHT22;4320;51.498;6.556;2024-02-28T11:21:25;7.60;99.90
8565;DHT22;4320;51.498;6.556;2024-02-28T11:23:51;7.50;99.90
8565;DHT22;4320;51.498;6.556;2024-02-28T11:26:17;7.60;99.90
8565;DHT22;4320;51.498;6.556;2024-02-28T11:28:43;7.70;99.90
8565;DHT22;4320;51.498;6.556;2024-02-28T11:31:09;7.80;99.90
8565;DHT22;4320;51.498;6.556;2024-02-28T11:33:36;7.70;99.90
8565;DHT22;4320;51.498;6.556;2024-02-28T11:36:02;7.70;99.90
8565;DHT22;4320;51.498;6.556;2024-02-28T11:38:28;7.70;99.90
8565;DHT22;4320;51.498;6.556;2024-02-28T11:40:54;7.80;99.90
8565;DHT22;4320;51.498;6.556;2024-02-28T11:43:23;7.80;99.90
8565;DHT22;4320;51.498;6.556;2024-02-28T11:45:49;7.80;99.90
8565;DHT22;4320;51.498;6.556;2024-02-28T11:48:15;7.90;99.90
8565;DHT22;4320;51.498;6.556;2024-02-28T11:50:41;8.00;99.90
8565;DHT22;4320;51.498;6.556;2024-02-28T11:53:07;8.10;99.90
8565;DHT22;4320;51.498;6.556;2024-02-28T11:55:38;7.90;99.90
8565;DHT22;4320;51.498;6.556;2024-02-28T11:58:10;8.00;99.90
8565;DHT22;4320;51.498;6.556;2024-02-28T12:00:48;8.20;99.90
8565;DHT22;4320;51.498;6.556;2024-02-28T12:03:15;8.20;99.90
8565;DHT22;4320;51.498;6.556;2024-02-28T12:05:45;8.40;99.90
8565;DHT22;4320;51.498;6.556;2024-02-28T12:08:11;8.60;99.90
8565;DHT22;4320;51.498;6.556;2024-02-28T12:10:37;8.70;99.90
8565;DHT22;4320;51.498;6.556;2024-02-28T12:13:02;8.80;99.90
8565;DHT22;4320;51.498;6.556;2024-02-28T12:15:29;8.80;99.90
8565;DHT22;4320;51.498;6.556;2024-02-28T12:17:55;8.90;99.90
8565;DHT22;4320;51.498;6.556;2024-02-28T12:20:20;8.90;99.90
8565;DHT22;4320;51.498;6.556;2024-02-28T12:22:46;9.20;99.90
8565;DHT22;4320;51.498;6.556;2024-02-28T12:25:11;9.30;99.90
8565;DHT22;4320;51.498;6.556;2024-02-28T12:27:37;9.40;98.90
8565;DHT22;4320;51.498;6.556;2024-02-28T12:30:03;9.50;94.10
8565;DHT22;4320;51.498;6.556;2024-02-28T12:32:28;9.70;92.40
8565;DHT22;4320;51.498;6.556;2024-02-28T12:34:54;9.70;90.70
8565;DHT22;4320;51.498;6.556;2024-02-28T12:37:20;9.70;82.20
8565;DHT22;4320;51.498;6.556;2024-02-28T12:39:45;9.80;79.70
8565;DHT22;4320;51.498;6.556;2024-02-28T12:42:13;9.80;72.50
8565;DHT22;4320;51.498;6.556;2024-02-28T12:44:38;9.80;66.90
8565;DHT22;4320;51.498;6.556;2024-02-28T12:47:06;9.70;65.60
8565;DHT22;4320;51.498;6.556;2024-02-28T12:49:32;9.80;66.60
8565;DHT22;4320;51.498;6.556;2024-02-28T12:51:57;9.80;62.20
8565;DHT22;4320;51.498;6.556;2024-02-28T12:54:23;9.50;56.50
8565;DHT22;4320;51.498;6.556;2024-02-28T12:56:48;9.40;58.20
8565;DHT22;4320;51.498;6.556;2024-02-28T12:59:14;9.60;57.30
8565;DHT22;4320;51.498;6.556;2024-02-28T13:01:41;9.80;60.30
8565;DHT22;4320;51.498;6.556;2024-02-28T13:04:06;9.90;55.50
8565;DHT22;4320;51.498;6.556;2024-02-28T13:06:32;10.00;49.90
8565;DHT22;4320;51.498;6.556;2024-02-28T13:08:58;10.00;45.90
8565;DHT22;4320;51.498;6.556;2024-02-28T13:11:24;10.00;42.00
8565;DHT22;4320;51.498;6.556;2024-02-28T13:13:51;10.00;42.30
8565;DHT22;4320;51.498;6.556;2024-02-28T13:16:18;10.10;38.10
8565;DHT22;4320;51.498;6.556;2024-02-28T13:18:43;10.10;38.00
8565;DHT22;4320;51.498;6.556;2024-02-28T13:21:12;10.00;35.00
8565;DHT22;4320;51.498;6.556;2024-02-28T13:23:39;10.00;32.30
8565;DHT22;4320;51.498;6.556;2024-02-28T13:26:05;9.90;30.70
8565;DHT22;4320;51.498;6.556;2024-02-28T13:28:31;10.00;33.10
8565;DHT22;4320;51.498;6.556;2024-02-28T13:30:58;10.00;31.50
8565;DHT22;4320;51.498;6.556;2024-02-28T13:33:23;10.10;30.00
8565;DHT22;4320;51.498;6.556;2024-02-28T13:35:49;10.20;28.20
8565;DHT22;4320;51.498;6.556;2024-02-28T13:38:14;10.30;27.70
8565;DHT22;4320;51.498;6.556;2024-02-28T13:40:40;10.30;27.50
8565;DHT22;4320;51.498;6.556;2024-02-28T13:43:06;10.20;23.70
8565;DHT22;4320;51.498;6.556;2024-02-28T13:45:32;10.40;23.40
8565;DHT22;4320;51.498;6.556;2024-02-28T13:47:59;10.50;23.70
8565;DHT22;4320;51.498;6.556;2024-02-28T13:50:25;10.50;18.70
8565;DHT22;4320;51.498;6.556;2024-02-28T13:52:57;10.30;15.10
8565;DHT22;4320;51.498;6.556;2024-02-28T13:55:22;10.10;14.10
8565;DHT22;4320;51.498;6.556;2024-02-28T13:57:48;9.70;17.10
8565;DHT22;4320;51.498;6.556;2024-02-28T14:00:14;9.90;19.60
8565;DHT22;4320;51.498;6.556;2024-02-28T14:02:40;10.00;18.30
8565;DHT22;4320;51.498;6.556;2024-02-28T14:05:06;10.10;18.50
8565;DHT22;4320;51.498;6.556;2024-02-28T14:07:33;10.10;16.50
8565;DHT22;4320;51.498;6.556;2024-02-28T14:09:58;10.20;15.30
8565;DHT22;4320;51.498;6.556;2024-02-28T14:12:25;10.20;15.70
8565;DHT22;4320;51.498;6.556;2024-02-28T14:14:50;10.40;17.60
8565;DHT22;4320;51.498;6.556;2024-02-28T14:17:16;10.50;14.50
8565;DHT22;4320;51.498;6.556;2024-02-28T14:19:42;10.60;9.50
8565;DHT22;4320;51.498;6.556;2024-02-28T14:22:08;10.60;8.80
8565;DHT22;4320;51.498;6.556;2024-02-28T14:24:35;10.60;9.50
8565;DHT22;4320;51.498;6.556;2024-02-28T14:27:05;10.70;9.90
8565;DHT22;4320;51.498;6.556;2024-02-28T14:29:30;10.60;6.10
8565;DHT22;4320;51.498;6.556;2024-02-28T14:31:56;10.80;10.60
8565;DHT22;4320;51.498;6.556;2024-02-28T14:34:22;10.80;9.30
8565;DHT22;4320;51.498;6.556;2024-02-28T14:36:48;10.90;4.10
8565;DHT22;4320;51.498;6.556;2024-02-28T14:39:14;10.80;1.00
8565;DHT22;4320;51.498;6.556;2024-02-28T14:41:44;10.90;1.00
8565;DHT22;4320;51.498;6.556;2024-02-28T14:44:12;10.70;1.00
8565;DHT22;4320;51.498;6.556;2024-02-28T14:46:39;10.50;2.10
8565;DHT22;4320;51.498;6.556;2024-02-28T14:49:05;10.60;1.00
8565;DHT22;4320;51.498;6.556;2024-02-28T14:51:30;10.60;1.00
8565;DHT22;4320;51.498;6.556;2024-02-28T14:53:56;10.60;6.10
8565;DHT22;4320;51.498;6.556;2024-02-28T14:56:22;10.70;1.00
8565;DHT22;4320;51.498;6.556;2024-02-28T14:58:47;10.70;3.70
8565;DHT22;4320;51.498;6.556;2024-02-28T15:01:13;10.70;1.00
8565;DHT22;4320;51.498;6.556;2024-02-28T15:03:39;10.60;1.00
8565;DHT22;4320;51.498;6.556;2024-02-28T15:06:06;10.60;1.40
8565;DHT22;4320;51.498;6.556;2024-02-28T15:08:32;10.60;1.00
8565;DHT22;4320;51.498;6.556;2024-02-28T15:10:57;10.60;1.00
8565;DHT22;4320;51.498;6.556;2024-02-28T15:13:23;10.60;1.00
8565;DHT22;4320;51.498;6.556;2024-02-28T15:15:49;10.40;1.00
8565;DHT22;4320;51.498;6.556;2024-02-28T15:18:14;10.30;1.00
8565;DHT22;4320;51.498;6.556;2024-02-28T15:20:40;10.40;1.00
8565;DHT22;4320;51.498;6.556;2024-02-28T15:23:06;10.40;2.90
8565;DHT22;4320;51.498;6.556;2024-02-28T15:25:32;10.20;1.00
8565;DHT22;4320;51.498;6.556;2024-02-28T15:27:57;10.10;1.00
8565;DHT22;4320;51.498;6.556;2024-02-28T15:30:23;10.00;7.90
8565;DHT22;4320;51.498;6.556;2024-02-28T15:32:49;10.10;8.10
8565;DHT22;4320;51.498;6.556;2024-02-28T15:35:14;10.10;7.10
8565;DHT22;4320;51.498;6.556;2024-02-28T15:37:40;10.20;8.60
8565;DHT22;4320;51.498;6.556;2024-02-28T15:40:06;10.20;4.20
8565;DHT22;4320;51.498;6.556;2024-02-28T15:42:33;10.30;6.30
8565;DHT22;4320;51.498;6.556;2024-02-28T15:44:59;10.30;6.10
8565;DHT22;4320;51.498;6.556;2024-02-28T15:47:24;10.20;3.30
8565;DHT22;4320;51.498;6.556;2024-02-28T15:49:51;10.00;2.80
8565;DHT22;4320;51.498;6.556;2024-02-28T15:52:17;10.10;9.70
8565;DHT22;4320;51.498;6.556;2024-02-28T15:54:43;10.20;10.30
8565;DHT22;4320;51.498;6.556;2024-02-28T15:57:09;10.20;6.70
8565;DHT22;4320;51.498;6.556;2024-02-28T15:59:35;10.30;8.50
8565;DHT22;4320;51.498;6.556;2024-02-28T16:02:02;10.30;6.10
8565;DHT22;4320;51.498;6.556;2024-02-28T16:04:29;10.40;6.00
8565;DHT22;4320;51.498;6.556;2024-02-28T16:06:54;10.30;5.30
8565;DHT22;4320;51.498;6.556;2024-02-28T16:09:20;10.10;7.10